Terminal Aerodrome Forecast
Issued by NWS

Current Version | Previous Version | Graphics & Text | Print | Product List | Glossary On
Versions: 1 2 3 4 5 6 7 8 9 10 11 12 13 14 15 16 17
591
FTUS41 KILN 260540
TAFLUK
TAF
KLUK 260540Z 2606/2706 00000KT P6SM SCT080
     FM261400 28011KT P6SM SCT050
     FM262300 26004KT P6SM SCT060 BKN120=

USA.gov is the U.S. government's official web portal to all federal, state and local government web resources and services.